sensor_id;sensor_type;location;lat;lon;timestamp;temperature;humidity
18450;DHT22;9354;50.194;7.690;2024-03-02T00:00:49;5.10;99.90
18450;DHT22;9354;50.194;7.690;2024-03-02T00:03:18;5.10;99.90
18450;DHT22;9354;50.194;7.690;2024-03-02T00:05:50;5.10;99.90
18450;DHT22;9354;50.194;7.690;2024-03-02T00:08:23;5.10;99.90
18450;DHT22;9354;50.194;7.690;2024-03-02T00:10:52;5.00;99.90
18450;DHT22;9354;50.194;7.690;2024-03-02T00:13:24;5.00;99.90
18450;DHT22;9354;50.194;7.690;2024-03-02T00:15:52;5.10;99.90
18450;DHT22;9354;50.194;7.690;2024-03-02T00:18:24;5.10;99.90
18450;DHT22;9354;50.194;7.690;2024-03-02T00:20:54;5.20;99.90
18450;DHT22;9354;50.194;7.690;2024-03-02T00:23:23;5.20;99.90
18450;DHT22;9354;50.194;7.690;2024-03-02T00:25:53;5.20;99.90
18450;DHT22;9354;50.194;7.690;2024-03-02T00:28:22;5.20;99.90
18450;DHT22;9354;50.194;7.690;2024-03-02T00:30:58;5.20;99.90
18450;DHT22;9354;50.194;7.690;2024-03-02T00:33:31;5.20;99.90
18450;DHT22;9354;50.194;7.690;2024-03-02T00:36:02;5.20;99.90
18450;DHT22;9354;50.194;7.690;2024-03-02T00:38:30;5.20;99.90
18450;DHT22;9354;50.194;7.690;2024-03-02T00:40:58;5.20;99.90
18450;DHT22;9354;50.194;7.690;2024-03-02T00:43:41;5.20;99.90
18450;DHT22;9354;50.194;7.690;2024-03-02T00:46:07;5.30;99.90
18450;DHT22;9354;50.194;7.690;2024-03-02T00:48:35;5.30;99.90
18450;DHT22;9354;50.194;7.690;2024-03-02T00:51:04;5.30;99.90
18450;DHT22;9354;50.194;7.690;2024-03-02T00:53:32;5.30;99.90
18450;DHT22;9354;50.194;7.690;2024-03-02T00:55:59;5.30;99.90
18450;DHT22;9354;50.194;7.690;2024-03-02T00:58:28;5.30;99.90
18450;DHT22;9354;50.194;7.690;2024-03-02T01:00:58;5.20;99.90
18450;DHT22;9354;50.194;7.690;2024-03-02T01:03:25;5.20;99.90
18450;DHT22;9354;50.194;7.690;2024-03-02T01:05:53;5.20;99.90
18450;DHT22;9354;50.194;7.690;2024-03-02T01:08:21;5.20;99.90
18450;DHT22;9354;50.194;7.690;2024-03-02T01:10:50;5.20;99.90
18450;DHT22;9354;50.194;7.690;2024-03-02T01:13:17;5.20;99.90
18450;DHT22;9354;50.194;7.690;2024-03-02T01:15:45;5.20;99.90
18450;DHT22;9354;50.194;7.690;2024-03-02T01:18:12;5.10;99.90
18450;DHT22;9354;50.194;7.690;2024-03-02T01:20:39;5.10;99.90
18450;DHT22;9354;50.194;7.690;2024-03-02T01:23:07;5.00;99.90
18450;DHT22;9354;50.194;7.690;2024-03-02T01:25:36;5.00;99.90
18450;DHT22;9354;50.194;7.690;2024-03-02T01:28:04;5.00;99.90
18450;DHT22;9354;50.194;7.690;2024-03-02T01:30:31;5.00;99.90
18450;DHT22;9354;50.194;7.690;2024-03-02T01:32:58;4.90;99.90
18450;DHT22;9354;50.194;7.690;2024-03-02T01:35:26;4.90;99.90
18450;DHT22;9354;50.194;7.690;2024-03-02T01:37:54;4.90;99.90
18450;DHT22;9354;50.194;7.690;2024-03-02T01:40:21;4.90;99.90
18450;DHT22;9354;50.194;7.690;2024-03-02T01:42:53;4.90;99.90
18450;DHT22;9354;50.194;7.690;2024-03-02T01:45:21;4.80;99.90
18450;DHT22;9354;50.194;7.690;2024-03-02T01:47:49;4.80;99.90
18450;DHT22;9354;50.194;7.690;2024-03-02T01:50:24;4.70;99.90
18450;DHT22;9354;50.194;7.690;2024-03-02T01:52:52;4.70;99.90
18450;DHT22;9354;50.194;7.690;2024-03-02T01:55:20;4.60;99.90
18450;DHT22;9354;50.194;7.690;2024-03-02T01:57:48;4.60;99.90
18450;DHT22;9354;50.194;7.690;2024-03-02T02:00:18;4.60;99.90
18450;DHT22;9354;50.194;7.690;2024-03-02T02:02:46;4.60;99.90
18450;DHT22;9354;50.194;7.690;2024-03-02T02:05:14;4.60;99.90
18450;DHT22;9354;50.194;7.690;2024-03-02T02:07:42;4.60;99.90
18450;DHT22;9354;50.194;7.690;2024-03-02T02:10:10;4.70;99.90
18450;DHT22;9354;50.194;7.690;2024-03-02T02:12:37;4.70;99.90
18450;DHT22;9354;50.194;7.690;2024-03-02T02:15:23;4.70;99.90
18450;DHT22;9354;50.194;7.690;2024-03-02T02:17:51;4.80;99.90
18450;DHT22;9354;50.194;7.690;2024-03-02T02:20:19;4.80;99.90
18450;DHT22;9354;50.194;7.690;2024-03-02T02:22:58;4.80;99.90
18450;DHT22;9354;50.194;7.690;2024-03-02T02:25:26;4.80;99.90
18450;DHT22;9354;50.194;7.690;2024-03-02T02:27:53;4.80;99.90
18450;DHT22;9354;50.194;7.690;2024-03-02T02:30:22;4.80;99.90
18450;DHT22;9354;50.194;7.690;2024-03-02T02:32:49;4.80;99.90
18450;DHT22;9354;50.194;7.690;2024-03-02T02:35:17;4.80;99.90
18450;DHT22;9354;50.194;7.690;2024-03-02T02:37:45;4.80;99.90
18450;DHT22;9354;50.194;7.690;2024-03-02T02:40:15;4.80;99.90
18450;DHT22;9354;50.194;7.690;2024-03-02T02:42:44;4.80;99.90
18450;DHT22;9354;50.194;7.690;2024-03-02T02:45:12;4.70;99.90
18450;DHT22;9354;50.194;7.690;2024-03-02T02:47:40;4.80;99.90
18450;DHT22;9354;50.194;7.690;2024-03-02T02:50:09;4.70;99.90
18450;DHT22;9354;50.194;7.690;2024-03-02T02:52:38;4.70;99.90
18450;DHT22;9354;50.194;7.690;2024-03-02T02:55:07;4.70;99.90
18450;DHT22;9354;50.194;7.690;2024-03-02T02:57:37;4.70;99.90
18450;DHT22;9354;50.194;7.690;2024-03-02T03:00:07;4.70;99.90
18450;DHT22;9354;50.194;7.690;2024-03-02T03:02:40;4.70;99.90
18450;DHT22;9354;50.194;7.690;2024-03-02T03:05:09;4.70;99.90
18450;DHT22;9354;50.194;7.690;2024-03-02T03:07:37;4.70;99.90
18450;DHT22;9354;50.194;7.690;2024-03-02T03:10:06;4.60;99.90
18450;DHT22;9354;50.194;7.690;2024-03-02T03:12:36;4.60;99.90
18450;DHT22;9354;50.194;7.690;2024-03-02T03:15:04;4.60;99.90
18450;DHT22;9354;50.194;7.690;2024-03-02T03:17:33;4.60;99.90
18450;DHT22;9354;50.194;7.690;2024-03-02T03:20:00;4.60;99.90
18450;DHT22;9354;50.194;7.690;2024-03-02T03:22:30;4.60;99.90
18450;DHT22;9354;50.194;7.690;2024-03-02T03:24:57;4.60;99.90
18450;DHT22;9354;50.194;7.690;2024-03-02T03:27:25;4.60;99.90
18450;DHT22;9354;50.194;7.690;2024-03-02T03:29:54;4.60;99.90
18450;DHT22;9354;50.194;7.690;2024-03-02T03:32:22;4.60;99.90
18450;DHT22;9354;50.194;7.690;2024-03-02T03:34:49;4.60;99.90
18450;DHT22;9354;50.194;7.690;2024-03-02T03:37:17;4.60;99.90
18450;DHT22;9354;50.194;7.690;2024-03-02T03:39:44;4.60;99.90
18450;DHT22;9354;50.194;7.690;2024-03-02T03:42:12;4.60;99.90
18450;DHT22;9354;50.194;7.690;2024-03-02T03:44:39;4.60;99.90
18450;DHT22;9354;50.194;7.690;2024-03-02T03:47:09;4.60;99.90
18450;DHT22;9354;50.194;7.690;2024-03-02T03:49:36;4.60;99.90
18450;DHT22;9354;50.194;7.690;2024-03-02T03:52:04;4.50;99.90
18450;DHT22;9354;50.194;7.690;2024-03-02T03:54:31;4.50;99.90
18450;DHT22;9354;50.194;7.690;2024-03-02T03:56:59;4.50;99.90
18450;DHT22;9354;50.194;7.690;2024-03-02T03:59:26;4.50;99.90
18450;DHT22;9354;50.194;7.690;2024-03-02T04:01:53;4.50;99.90
18450;DHT22;9354;50.194;7.690;2024-03-02T04:04:22;4.50;99.90
18450;DHT22;9354;50.194;7.690;2024-03-02T04:06:50;4.50;99.90
18450;DHT22;9354;50.194;7.690;2024-03-02T04:09:17;4.60;99.90
18450;DHT22;9354;50.194;7.690;2024-03-02T04:11:44;4.50;99.90
18450;DHT22;9354;50.194;7.690;2024-03-02T04:14:12;4.50;99.90
18450;DHT22;9354;50.194;7.690;2024-03-02T04:16:39;4.50;99.90
18450;DHT22;9354;50.194;7.690;2024-03-02T04:19:07;4.50;99.90
18450;DHT22;9354;50.194;7.690;2024-03-02T04:21:36;4.60;99.90
18450;DHT22;9354;50.194;7.690;2024-03-02T04:24:03;4.60;99.90
18450;DHT22;9354;50.194;7.690;2024-03-02T04:26:31;4.70;99.90
18450;DHT22;9354;50.194;7.690;2024-03-02T04:28:58;4.70;99.90
18450;DHT22;9354;50.194;7.690;2024-03-02T04:31:26;4.70;99.90
18450;DHT22;9354;50.194;7.690;2024-03-02T04:33:53;4.70;99.90
18450;DHT22;9354;50.194;7.690;2024-03-02T04:36:21;4.70;99.90
18450;DHT22;9354;50.194;7.690;2024-03-02T04:38:49;4.70;99.90
18450;DHT22;9354;50.194;7.690;2024-03-02T04:41:17;4.70;99.90
18450;DHT22;9354;50.194;7.690;2024-03-02T04:43:44;4.70;99.90
18450;DHT22;9354;50.194;7.690;2024-03-02T04:46:11;4.70;99.90
18450;DHT22;9354;50.194;7.690;2024-03-02T04:48:39;4.70;99.90
18450;DHT22;9354;50.194;7.690;2024-03-02T04:51:06;4.70;99.90
18450;DHT22;9354;50.194;7.690;2024-03-02T04:53:34;4.70;99.90
18450;DHT22;9354;50.194;7.690;2024-03-02T04:56:03;4.70;99.90
18450;DHT22;9354;50.194;7.690;2024-03-02T04:59:03;4.70;99.90
18450;DHT22;9354;50.194;7.690;2024-03-02T05:01:30;4.70;99.90
18450;DHT22;9354;50.194;7.690;2024-03-02T05:03:57;4.70;99.90
18450;DHT22;9354;50.194;7.690;2024-03-02T05:06:25;4.70;99.90
18450;DHT22;9354;50.194;7.690;2024-03-02T05:08:52;4.70;99.90
18450;DHT22;9354;50.194;7.690;2024-03-02T05:11:21;4.70;99.90
18450;DHT22;9354;50.194;7.690;2024-03-02T05:14:11;4.80;99.90
18450;DHT22;9354;50.194;7.690;2024-03-02T05:16:38;4.80;99.90
18450;DHT22;9354;50.194;7.690;2024-03-02T05:19:07;4.80;99.90
18450;DHT22;9354;50.194;7.690;2024-03-02T05:21:34;4.80;99.90
18450;DHT22;9354;50.194;7.690;2024-03-02T05:24:02;4.80;99.90
18450;DHT22;9354;50.194;7.690;2024-03-02T05:26:30;4.80;99.90
18450;DHT22;9354;50.194;7.690;2024-03-02T05:28:58;4.80;99.90
18450;DHT22;9354;50.194;7.690;2024-03-02T05:31:24;4.80;99.90
18450;DHT22;9354;50.194;7.690;2024-03-02T05:33:52;4.70;99.90
18450;DHT22;9354;50.194;7.690;2024-03-02T05:36:19;4.80;99.90
18450;DHT22;9354;50.194;7.690;2024-03-02T05:38:47;4.70;99.90
18450;DHT22;9354;50.194;7.690;2024-03-02T05:41:15;4.70;99.90
18450;DHT22;9354;50.194;7.690;2024-03-02T05:43:43;4.80;99.90
18450;DHT22;9354;50.194;7.690;2024-03-02T05:46:11;4.70;99.90
18450;DHT22;9354;50.194;7.690;2024-03-02T05:48:39;4.70;99.90
18450;DHT22;9354;50.194;7.690;2024-03-02T05:51:06;4.70;99.90
18450;DHT22;9354;50.194;7.690;2024-03-02T05:53:34;4.70;99.90
18450;DHT22;9354;50.194;7.690;2024-03-02T05:56:04;4.70;99.90
18450;DHT22;9354;50.194;7.690;2024-03-02T05:58:32;4.60;99.90
18450;DHT22;9354;50.194;7.690;2024-03-02T06:01:13;4.60;99.90
18450;DHT22;9354;50.194;7.690;2024-03-02T06:03:41;4.60;99.90
18450;DHT22;9354;50.194;7.690;2024-03-02T06:06:08;4.60;99.90
18450;DHT22;9354;50.194;7.690;2024-03-02T06:08:36;4.60;99.90
18450;DHT22;9354;50.194;7.690;2024-03-02T06:11:03;4.60;99.90
18450;DHT22;9354;50.194;7.690;2024-03-02T06:13:31;4.50;99.90
18450;DHT22;9354;50.194;7.690;2024-03-02T06:15:58;4.50;99.90
18450;DHT22;9354;50.194;7.690;2024-03-02T06:18:27;4.50;99.90
18450;DHT22;9354;50.194;7.690;2024-03-02T06:20:55;4.50;99.90
18450;DHT22;9354;50.194;7.690;2024-03-02T06:23:22;4.50;99.90
18450;DHT22;9354;50.194;7.690;2024-03-02T06:25:49;4.50;99.90
18450;DHT22;9354;50.194;7.690;2024-03-02T06:28:17;4.50;99.90
18450;DHT22;9354;50.194;7.690;2024-03-02T06:30:44;4.50;99.90
18450;DHT22;9354;50.194;7.690;2024-03-02T06:33:12;4.60;99.90
18450;DHT22;9354;50.194;7.690;2024-03-02T06:35:41;4.60;99.90
18450;DHT22;9354;50.194;7.690;2024-03-02T06:38:08;4.60;99.90
18450;DHT22;9354;50.194;7.690;2024-03-02T06:40:35;4.60;99.90
18450;DHT22;9354;50.194;7.690;2024-03-02T06:43:08;4.70;99.90
18450;DHT22;9354;50.194;7.690;2024-03-02T06:45:36;4.70;99.90
18450;DHT22;9354;50.194;7.690;2024-03-02T06:48:04;4.70;99.90
18450;DHT22;9354;50.194;7.690;2024-03-02T06:50:32;4.70;99.90
18450;DHT22;9354;50.194;7.690;2024-03-02T06:53:00;4.70;99.90
18450;DHT22;9354;50.194;7.690;2024-03-02T06:55:30;4.80;99.90
18450;DHT22;9354;50.194;7.690;2024-03-02T06:57:58;4.80;99.90
18450;DHT22;9354;50.194;7.690;2024-03-02T07:00:25;4.80;99.90
18450;DHT22;9354;50.194;7.690;2024-03-02T07:02:52;4.90;99.90
18450;DHT22;9354;50.194;7.690;2024-03-02T07:05:20;4.90;99.90
18450;DHT22;9354;50.194;7.690;2024-03-02T07:07:48;4.90;99.90
18450;DHT22;9354;50.194;7.690;2024-03-02T07:10:16;4.90;99.90
18450;DHT22;9354;50.194;7.690;2024-03-02T07:12:45;4.90;99.90
18450;DHT22;9354;50.194;7.690;2024-03-02T07:15:13;5.00;99.90
18450;DHT22;9354;50.194;7.690;2024-03-02T07:18:03;5.00;99.90
18450;DHT22;9354;50.194;7.690;2024-03-02T07:20:31;5.00;99.90
18450;DHT22;9354;50.194;7.690;2024-03-02T07:22:58;5.10;99.90
18450;DHT22;9354;50.194;7.690;2024-03-02T07:25:27;5.10;99.90
18450;DHT22;9354;50.194;7.690;2024-03-02T07:27:55;5.10;99.90
18450;DHT22;9354;50.194;7.690;2024-03-02T07:30:22;5.20;99.90
18450;DHT22;9354;50.194;7.690;2024-03-02T07:32:50;5.20;99.90
18450;DHT22;9354;50.194;7.690;2024-03-02T07:35:17;5.20;99.90
18450;DHT22;9354;50.194;7.690;2024-03-02T07:37:45;5.30;99.90
18450;DHT22;9354;50.194;7.690;2024-03-02T07:40:12;5.30;99.90
18450;DHT22;9354;50.194;7.690;2024-03-02T07:42:41;5.30;99.90
18450;DHT22;9354;50.194;7.690;2024-03-02T07:45:09;5.40;99.90
18450;DHT22;9354;50.194;7.690;2024-03-02T07:47:36;5.50;99.90
18450;DHT22;9354;50.194;7.690;2024-03-02T07:50:05;5.60;99.90
18450;DHT22;9354;50.194;7.690;2024-03-02T07:52:33;5.80;99.90
18450;DHT22;9354;50.194;7.690;2024-03-02T07:55:00;6.00;99.90
18450;DHT22;9354;50.194;7.690;2024-03-02T07:57:28;6.20;99.90
18450;DHT22;9354;50.194;7.690;2024-03-02T07:59:57;6.30;99.90
18450;DHT22;9354;50.194;7.690;2024-03-02T08:02:25;6.50;99.90
18450;DHT22;9354;50.194;7.690;2024-03-02T08:04:53;6.60;99.90
18450;DHT22;9354;50.194;7.690;2024-03-02T08:07:20;6.70;99.90
18450;DHT22;9354;50.194;7.690;2024-03-02T08:09:47;6.80;99.90
18450;DHT22;9354;50.194;7.690;2024-03-02T08:12:15;6.90;99.90
18450;DHT22;9354;50.194;7.690;2024-03-02T08:14:42;7.00;99.90
18450;DHT22;9354;50.194;7.690;2024-03-02T08:17:11;7.10;99.90
18450;DHT22;9354;50.194;7.690;2024-03-02T08:19:39;7.20;99.90
18450;DHT22;9354;50.194;7.690;2024-03-02T08:22:06;7.30;99.90
18450;DHT22;9354;50.194;7.690;2024-03-02T08:24:34;7.40;99.90
18450;DHT22;9354;50.194;7.690;2024-03-02T08:27:01;7.50;99.90
18450;DHT22;9354;50.194;7.690;2024-03-02T08:29:29;7.60;99.90
18450;DHT22;9354;50.194;7.690;2024-03-02T08:31:57;7.60;99.90
18450;DHT22;9354;50.194;7.690;2024-03-02T08:34:26;7.70;99.90
18450;DHT22;9354;50.194;7.690;2024-03-02T08:36:53;7.80;99.90
18450;DHT22;9354;50.194;7.690;2024-03-02T08:39:21;7.80;99.90
18450;DHT22;9354;50.194;7.690;2024-03-02T08:41:48;8.00;99.90
18450;DHT22;9354;50.194;7.690;2024-03-02T08:44:16;8.10;99.90
18450;DHT22;9354;50.194;7.690;2024-03-02T08:46:44;8.10;99.90
18450;DHT22;9354;50.194;7.690;2024-03-02T08:49:11;8.20;99.90
18450;DHT22;9354;50.194;7.690;2024-03-02T08:51:40;8.20;99.90
18450;DHT22;9354;50.194;7.690;2024-03-02T08:54:08;8.30;99.90
18450;DHT22;9354;50.194;7.690;2024-03-02T08:56:36;8.30;99.90
18450;DHT22;9354;50.194;7.690;2024-03-02T08:59:03;8.30;99.90
18450;DHT22;9354;50.194;7.690;2024-03-02T09:01:31;8.40;99.90
18450;DHT22;9354;50.194;7.690;2024-03-02T09:03:58;8.50;99.90
18450;DHT22;9354;50.194;7.690;2024-03-02T09:06:26;8.60;99.90
18450;DHT22;9354;50.194;7.690;2024-03-02T09:08:54;8.70;99.90
18450;DHT22;9354;50.194;7.690;2024-03-02T09:11:22;8.60;99.90
18450;DHT22;9354;50.194;7.690;2024-03-02T09:13:49;8.60;99.90
18450;DHT22;9354;50.194;7.690;2024-03-02T09:16:17;8.70;99.90
18450;DHT22;9354;50.194;7.690;2024-03-02T09:18:44;8.80;99.90
18450;DHT22;9354;50.194;7.690;2024-03-02T09:21:12;9.00;99.90
18450;DHT22;9354;50.194;7.690;2024-03-02T09:23:39;9.20;99.90
18450;DHT22;9354;50.194;7.690;2024-03-02T09:26:08;9.40;99.90
18450;DHT22;9354;50.194;7.690;2024-03-02T09:28:35;9.50;99.90
18450;DHT22;9354;50.194;7.690;2024-03-02T09:31:03;9.60;99.90
18450;DHT22;9354;50.194;7.690;2024-03-02T09:33:30;9.70;99.90
18450;DHT22;9354;50.194;7.690;2024-03-02T09:35:58;9.70;99.90
18450;DHT22;9354;50.194;7.690;2024-03-02T09:38:25;9.70;99.90
18450;DHT22;9354;50.194;7.690;2024-03-02T09:40:52;9.60;99.90
18450;DHT22;9354;50.194;7.690;2024-03-02T09:43:21;9.50;99.90
18450;DHT22;9354;50.194;7.690;2024-03-02T09:45:51;9.50;99.90
18450;DHT22;9354;50.194;7.690;2024-03-02T09:48:18;9.50;99.90
18450;DHT22;9354;50.194;7.690;2024-03-02T09:50:46;9.60;99.90
18450;DHT22;9354;50.194;7.690;2024-03-02T09:53:14;9.70;99.90
18450;DHT22;9354;50.194;7.690;2024-03-02T09:55:45;9.80;99.90
18450;DHT22;9354;50.194;7.690;2024-03-02T09:58:13;9.90;99.90
18450;DHT22;9354;50.194;7.690;2024-03-02T10:00:42;10.00;99.90
18450;DHT22;9354;50.194;7.690;2024-03-02T10:03:12;10.20;99.90
18450;DHT22;9354;50.194;7.690;2024-03-02T10:05:39;10.20;99.90
18450;DHT22;9354;50.194;7.690;2024-03-02T10:08:07;10.30;99.90
18450;DHT22;9354;50.194;7.690;2024-03-02T10:10:35;10.30;99.90
18450;DHT22;9354;50.194;7.690;2024-03-02T10:13:06;10.30;99.90
18450;DHT22;9354;50.194;7.690;2024-03-02T10:15:35;10.30;99.90
18450;DHT22;9354;50.194;7.690;2024-03-02T10:18:05;10.20;99.90
18450;DHT22;9354;50.194;7.690;2024-03-02T10:20:35;10.00;99.90
18450;DHT22;9354;50.194;7.690;2024-03-02T10:23:13;9.90;99.90
18450;DHT22;9354;50.194;7.690;2024-03-02T10:25:42;9.70;99.90
18450;DHT22;9354;50.194;7.690;2024-03-02T10:28:09;9.70;99.90
18450;DHT22;9354;50.194;7.690;2024-03-02T10:30:37;9.70;99.90
18450;DHT22;9354;50.194;7.690;2024-03-02T10:33:06;9.70;99.90
18450;DHT22;9354;50.194;7.690;2024-03-02T10:35:33;9.70;99.90
18450;DHT22;9354;50.194;7.690;2024-03-02T10:38:04;9.60;99.90
18450;DHT22;9354;50.194;7.690;2024-03-02T10:40:32;9.50;99.90
18450;DHT22;9354;50.194;7.690;2024-03-02T10:43:01;9.50;99.90
18450;DHT22;9354;50.194;7.690;2024-03-02T10:45:29;9.50;99.90
18450;DHT22;9354;50.194;7.690;2024-03-02T10:47:57;9.50;99.90
18450;DHT22;9354;50.194;7.690;2024-03-02T10:50:26;9.50;99.90
18450;DHT22;9354;50.194;7.690;2024-03-02T10:52:54;9.60;99.90
18450;DHT22;9354;50.194;7.690;2024-03-02T10:55:21;9.60;99.90
18450;DHT22;9354;50.194;7.690;2024-03-02T10:57:51;9.60;99.90
18450;DHT22;9354;50.194;7.690;2024-03-02T11:00:20;9.70;99.90
18450;DHT22;9354;50.194;7.690;2024-03-02T11:02:52;9.80;99.90
18450;DHT22;9354;50.194;7.690;2024-03-02T11:05:28;9.80;99.90
18450;DHT22;9354;50.194;7.690;2024-03-02T11:08:01;10.00;99.90
18450;DHT22;9354;50.194;7.690;2024-03-02T11:10:34;10.00;99.90
18450;DHT22;9354;50.194;7.690;2024-03-02T11:13:05;10.10;99.90
18450;DHT22;9354;50.194;7.690;2024-03-02T11:15:34;10.40;99.90
18450;DHT22;9354;50.194;7.690;2024-03-02T11:18:04;10.80;99.90
18450;DHT22;9354;50.194;7.690;2024-03-02T11:20:38;11.00;99.90
18450;DHT22;9354;50.194;7.690;2024-03-02T11:23:07;11.30;99.90
18450;DHT22;9354;50.194;7.690;2024-03-02T11:25:35;11.50;99.90
18450;DHT22;9354;50.194;7.690;2024-03-02T11:28:03;11.70;99.90
18450;DHT22;9354;50.194;7.690;2024-03-02T11:30:50;11.80;99.90
18450;DHT22;9354;50.194;7.690;2024-03-02T11:33:24;11.90;99.90
18450;DHT22;9354;50.194;7.690;2024-03-02T11:35:56;11.90;99.90
18450;DHT22;9354;50.194;7.690;2024-03-02T11:38:24;11.90;99.90
18450;DHT22;9354;50.194;7.690;2024-03-02T11:40:54;11.80;99.90
18450;DHT22;9354;50.194;7.690;2024-03-02T11:43:22;11.90;99.90
18450;DHT22;9354;50.194;7.690;2024-03-02T11:45:57;12.00;99.90
18450;DHT22;9354;50.194;7.690;2024-03-02T11:48:25;12.10;99.90
18450;DHT22;9354;50.194;7.690;2024-03-02T11:50:54;12.20;99.90
18450;DHT22;9354;50.194;7.690;2024-03-02T11:53:26;12.30;99.90
18450;DHT22;9354;50.194;7.690;2024-03-02T11:55:55;12.30;99.90
18450;DHT22;9354;50.194;7.690;2024-03-02T11:58:23;12.30;99.90
18450;DHT22;9354;50.194;7.690;2024-03-02T12:00:53;12.30;99.90
18450;DHT22;9354;50.194;7.690;2024-03-02T12:03:22;12.40;99.90
18450;DHT22;9354;50.194;7.690;2024-03-02T12:05:52;12.50;99.90
18450;DHT22;9354;50.194;7.690;2024-03-02T12:08:21;12.60;99.90
18450;DHT22;9354;50.194;7.690;2024-03-02T12:10:59;12.70;99.90
18450;DHT22;9354;50.194;7.690;2024-03-02T12:13:27;12.70;99.90
18450;DHT22;9354;50.194;7.690;2024-03-02T12:15:55;12.80;99.90
18450;DHT22;9354;50.194;7.690;2024-03-02T12:18:23;12.70;99.90
18450;DHT22;9354;50.194;7.690;2024-03-02T12:20:51;12.70;99.90
18450;DHT22;9354;50.194;7.690;2024-03-02T12:23:23;12.70;99.90
18450;DHT22;9354;50.194;7.690;2024-03-02T12:25:51;12.60;99.90
18450;DHT22;9354;50.194;7.690;2024-03-02T12:28:19;12.40;99.90
18450;DHT22;9354;50.194;7.690;2024-03-02T12:30:47;12.40;99.90
18450;DHT22;9354;50.194;7.690;2024-03-02T12:33:16;12.40;99.90
18450;DHT22;9354;50.194;7.690;2024-03-02T12:35:44;12.40;99.90
18450;DHT22;9354;50.194;7.690;2024-03-02T12:38:12;12.40;99.90
18450;DHT22;9354;50.194;7.690;2024-03-02T12:40:41;12.50;99.90
18450;DHT22;9354;50.194;7.690;2024-03-02T12:43:08;12.60;99.90
18450;DHT22;9354;50.194;7.690;2024-03-02T12:45:37;12.60;99.90
18450;DHT22;9354;50.194;7.690;2024-03-02T12:48:05;12.70;99.90
18450;DHT22;9354;50.194;7.690;2024-03-02T12:50:33;12.70;99.90
18450;DHT22;9354;50.194;7.690;2024-03-02T12:53:00;12.60;99.90
18450;DHT22;9354;50.194;7.690;2024-03-02T12:55:28;12.60;99.90
18450;DHT22;9354;50.194;7.690;2024-03-02T12:57:57;12.60;99.90
18450;DHT22;9354;50.194;7.690;2024-03-02T13:00:25;12.70;99.90
18450;DHT22;9354;50.194;7.690;2024-03-02T13:02:52;12.60;99.90
18450;DHT22;9354;50.194;7.690;2024-03-02T13:05:20;12.70;99.90
18450;DHT22;9354;50.194;7.690;2024-03-02T13:07:49;12.80;99.90
18450;DHT22;9354;50.194;7.690;2024-03-02T13:10:16;12.80;99.90
18450;DHT22;9354;50.194;7.690;2024-03-02T13:12:45;12.70;99.90
18450;DHT22;9354;50.194;7.690;2024-03-02T13:15:15;12.60;99.90
18450;DHT22;9354;50.194;7.690;2024-03-02T13:17:42;12.60;99.90
18450;DHT22;9354;50.194;7.690;2024-03-02T13:20:11;12.60;99.90
18450;DHT22;9354;50.194;7.690;2024-03-02T13:22:40;12.70;99.90
18450;DHT22;9354;50.194;7.690;2024-03-02T13:25:07;12.80;99.90
18450;DHT22;9354;50.194;7.690;2024-03-02T13:27:36;12.80;99.90
18450;DHT22;9354;50.194;7.690;2024-03-02T13:30:05;12.70;99.90
18450;DHT22;9354;50.194;7.690;2024-03-02T13:32:36;12.60;99.90
18450;DHT22;9354;50.194;7.690;2024-03-02T13:35:04;12.60;99.90
18450;DHT22;9354;50.194;7.690;2024-03-02T13:37:31;12.60;99.90
18450;DHT22;9354;50.194;7.690;2024-03-02T13:39:59;12.70;99.90
18450;DHT22;9354;50.194;7.690;2024-03-02T13:42:26;12.70;99.90
18450;DHT22;9354;50.194;7.690;2024-03-02T13:44:53;12.80;99.90
18450;DHT22;9354;50.194;7.690;2024-03-02T13:47:21;12.90;99.90
18450;DHT22;9354;50.194;7.690;2024-03-02T13:49:50;13.00;99.90
18450;DHT22;9354;50.194;7.690;2024-03-02T13:52:17;13.00;99.90
18450;DHT22;9354;50.194;7.690;2024-03-02T13:54:46;13.00;99.90
18450;DHT22;9354;50.194;7.690;2024-03-02T13:57:14;12.90;99.90
18450;DHT22;9354;50.194;7.690;2024-03-02T13:59:42;12.90;99.90
18450;DHT22;9354;50.194;7.690;2024-03-02T14:02:10;12.90;99.90
18450;DHT22;9354;50.194;7.690;2024-03-02T14:04:39;12.90;99.90
18450;DHT22;9354;50.194;7.690;2024-03-02T14:07:07;12.80;99.90
18450;DHT22;9354;50.194;7.690;2024-03-02T14:09:36;12.80;99.90
18450;DHT22;9354;50.194;7.690;2024-03-02T14:12:05;12.80;99.90
18450;DHT22;9354;50.194;7.690;2024-03-02T14:14:32;12.70;99.90
18450;DHT22;9354;50.194;7.690;2024-03-02T14:17:00;12.70;99.90
18450;DHT22;9354;50.194;7.690;2024-03-02T14:19:30;12.70;99.90
18450;DHT22;9354;50.194;7.690;2024-03-02T14:21:57;12.80;99.90
18450;DHT22;9354;50.194;7.690;2024-03-02T14:24:26;12.90;99.90
18450;DHT22;9354;50.194;7.690;2024-03-02T14:26:55;13.00;99.90
18450;DHT22;9354;50.194;7.690;2024-03-02T14:29:25;13.20;99.90
18450;DHT22;9354;50.194;7.690;2024-03-02T14:31:52;13.30;99.90
18450;DHT22;9354;50.194;7.690;2024-03-02T14:34:20;13.40;99.90
18450;DHT22;9354;50.194;7.690;2024-03-02T14:36:48;13.30;99.90
18450;DHT22;9354;50.194;7.690;2024-03-02T14:39:15;13.10;99.90
18450;DHT22;9354;50.194;7.690;2024-03-02T14:41:46;12.90;99.90
18450;DHT22;9354;50.194;7.690;2024-03-02T14:44:15;12.70;99.90
18450;DHT22;9354;50.194;7.690;2024-03-02T14:46:43;12.50;99.90
18450;DHT22;9354;50.194;7.690;2024-03-02T14:49:13;12.40;99.90
18450;DHT22;9354;50.194;7.690;2024-03-02T14:51:41;12.30;99.90
18450;DHT22;9354;50.194;7.690;2024-03-02T14:54:08;12.30;99.90
18450;DHT22;9354;50.194;7.690;2024-03-02T14:56:36;12.20;99.90
18450;DHT22;9354;50.194;7.690;2024-03-02T14:59:04;12.10;99.90
18450;DHT22;9354;50.194;7.690;2024-03-02T15:01:32;12.10;99.90
18450;DHT22;9354;50.194;7.690;2024-03-02T15:03:59;12.10;99.90
18450;DHT22;9354;50.194;7.690;2024-03-02T15:06:27;12.20;99.90
18450;DHT22;9354;50.194;7.690;2024-03-02T15:08:54;12.20;99.90
18450;DHT22;9354;50.194;7.690;2024-03-02T15:11:22;12.20;99.90
18450;DHT22;9354;50.194;7.690;2024-03-02T15:13:51;12.20;99.90
18450;DHT22;9354;50.194;7.690;2024-03-02T15:16:22;12.20;99.90
18450;DHT22;9354;50.194;7.690;2024-03-02T15:18:50;12.20;99.90
18450;DHT22;9354;50.194;7.690;2024-03-02T15:21:17;12.10;99.90
18450;DHT22;9354;50.194;7.690;2024-03-02T15:23:45;12.10;99.90
18450;DHT22;9354;50.194;7.690;2024-03-02T15:26:12;12.00;99.90
18450;DHT22;9354;50.194;7.690;2024-03-02T15:28:40;12.00;99.90
18450;DHT22;9354;50.194;7.690;2024-03-02T15:31:07;12.00;99.90
18450;DHT22;9354;50.194;7.690;2024-03-02T15:33:36;11.90;99.90
18450;DHT22;9354;50.194;7.690;2024-03-02T15:36:04;11.90;99.90
18450;DHT22;9354;50.194;7.690;2024-03-02T15:38:32;11.90;99.90
18450;DHT22;9354;50.194;7.690;2024-03-02T15:41:03;11.90;99.90
18450;DHT22;9354;50.194;7.690;2024-03-02T15:43:31;11.90;99.90
18450;DHT22;9354;50.194;7.690;2024-03-02T15:45:58;12.00;99.90
18450;DHT22;9354;50.194;7.690;2024-03-02T15:48:26;11.90;99.90
18450;DHT22;9354;50.194;7.690;2024-03-02T15:50:55;11.90;99.90
18450;DHT22;9354;50.194;7.690;2024-03-02T15:53:23;11.90;99.90
18450;DHT22;9354;50.194;7.690;2024-03-02T15:55:51;11.90;99.90
18450;DHT22;9354;50.194;7.690;2024-03-02T15:58:20;11.90;99.90
18450;DHT22;9354;50.194;7.690;2024-03-02T16:00:47;11.90;99.90
18450;DHT22;9354;50.194;7.690;2024-03-02T16:03:15;11.90;99.90
18450;DHT22;9354;50.194;7.690;2024-03-02T16:05:42;11.90;99.90